CDT,Max TemperatureF,Mean TemperatureF,Min TemperatureF,Max Dew PointF,MeanDew PointF,Min DewpointF,Max Humidity, Mean Humidity, Min Humidity, Max Sea Level PressureIn, Mean Sea Level PressureIn, Min Sea Level PressureIn, Max VisibilityMiles, Mean VisibilityMiles, Min VisibilityMiles, Max Wind SpeedMPH, Mean Wind SpeedMPH, Max Gust SpeedMPH,PrecipitationIn, CloudCover, Events, WindDirDegrees
2013-7-1,84,73,62,58,55,50,81,53,33,30.17,30.14,30.11,10,9,7,9,5,,0.00,1,,19
2013-7-2,84,72,60,56,53,47,81,51,31,30.15,30.10,30.04,10,10,9,10,4,16,0.00,1,,19
2013-7-3,84,72,60,61,54,48,96,56,28,30.06,30.01,29.94,10,10,3,9,2,,0.00,0,,171
2013-7-4,90,78,66,61,56,52,70,50,29,29.95,29.90,29.84,10,10,10,17,8,22,0.00,1,,182
2013-7-5,89,80,71,63,60,56,64,52,38,29.89,29.84,29.78,10,10,10,23,11,29,0.00,1,,179
2013-7-6,91,82,73,65,63,59,62,53,42,29.86,29.83,29.78,10,10,10,13,8,18,0.00,1,Rain,175
2013-7-7,91,82,73,72,67,64,82,61,48,29.86,29.82,29.79,10,9,7,14,7,22,0.00,2,Rain-Thunderstorm,243
2013-7-8,89,78,68,69,67,64,90,71,46,29.99,29.93,29.88,10,9,5,8,5,,0.00,2,,360
2013-7-9,86,76,69,72,68,63,94,75,59,29.93,29.84,29.73,10,9,1,16,8,36,0.58,4,Rain-Thunderstorm,248
2013-7-10,82,73,64,63,56,52,75,58,35,30.04,30.00,29.92,10,8,6,17,10,26,0.00,1,,327
2013-7-11,86,74,62,63,58,53,94,61,34,30.11,30.05,29.96,10,7,2,15,4,16,0.00,0,,166
2013-7-12,90,80,69,62,59,56,65,50,38,30.00,29.95,29.89,10,10,10,23,13,31,0.00,0,,168
2013-7-13,80,72,66,68,64,57,97,80,52,30.06,30.00,29.93,10,6,0,18,10,32,4.59,5,Fog-Rain-Thunderstorm,148
2013-7-14,84,77,70,67,64,61,81,65,49,30.17,30.11,30.05,10,10,9,13,8,,0.00,4,,157
2013-7-15,87,78,70,70,66,64,81,64,48,30.22,30.18,30.14,10,10,8,9,6,17,0.00,2,,166
2013-7-16,91,83,75,72,70,69,85,67,48,30.20,30.17,30.15,10,10,7,13,7,20,0.00,1,,206
2013-7-17,93,82,73,72,70,69,87,65,47,30.24,30.18,30.09,10,10,8,13,4,23,0.00,0,,221
2013-7-18,93,84,75,71,70,67,82,62,44,30.09,29.92,29.75,10,10,10,21,10,29,0.00,0,,216
2013-7-19,84,78,73,71,63,57,82,58,41,29.88,29.80,29.71,10,10,10,18,12,32,0.00,2,Thunderstorm,282
2013-7-20,82,72,64,63,60,55,84,63,47,29.94,29.90,29.87,10,10,8,8,5,,0.00,2,,358
2013-7-21,82,70,57,67,59,50,94,74,54,29.94,29.88,29.79,10,9,0,13,8,,0.75,4,Fog-Rain-Thunderstorm,95
2013-7-22,87,78,68,70,64,55,90,68,44,29.84,29.73,29.67,10,10,9,16,10,26,0.00,1,,243
2013-7-23,77,69,61,56,53,51,78,58,40,30.01,29.95,29.85,10,10,8,12,7,16,0.00,0,,1
2013-7-24,79,70,62,60,56,51,81,66,48,30.07,30.02,29.97,10,10,10,7,4,,0.00,3,Rain,165
2013-7-25,82,72,62,66,61,57,84,67,45,29.96,29.93,29.90,10,10,10,14,5,18,0.05,3,,235
2013-7-26,73,66,57,64,55,46,93,70,52,30.07,29.97,29.90,10,10,10,21,10,26,0.03,6,Rain-Thunderstorm,313
2013-7-27,64,58,52,49,47,44,83,66,52,30.07,30.01,29.94,10,10,7,18,9,25,0.01,7,Rain,337
2013-7-28,75,63,53,53,48,45,81,63,46,30.06,29.99,29.96,10,10,9,10,7,17,0.00,4,,346
2013-7-29,78,66,54,57,54,51,93,65,43,30.13,30.09,30.06,10,10,10,8,3,,0.00,2,Rain,164
2013-7-30,72,68,64,64,61,58,90,81,73,30.10,30.08,30.05,10,10,6,8,2,,0.04,8,Rain,138
2013-7-31,81,70,60,65,60,51,100,84,44,30.08,30.05,29.99,10,4,0,12,3,24,0.05,2,Fog,259